This is the latest recevied weather packets stored in our database for station/object HK4RAU-15. If no packets are shown the sender has not sent any weather packets the latest 10 day(s).
| Time | Temp. | Humidity | Pressure | Rain* | Wind** | Luminosity | Snow |
|---|---|---|---|---|---|---|---|
| 1778262104 | 30° C | 64% | 1009 hPa | 0 mm | - | - | - |
| 1778261918 | 29.44° C | 64% | 1009 hPa | 0 mm | - | - | - |
| 1778261736 | 30° C | 64% | 1009 hPa | 0 mm | - | - | - |
| 1778261545 | 27.78° C | 64% | 1010 hPa | 0 mm | - | - | - |
| 1778261358 | 27.78° C | 64% | 1010 hPa | 0 mm | - | - | - |
| 1778261177 | 27.78° C | 64% | 1010 hPa | 0 mm | - | - | - |
| 1778260991 | 27.78° C | 64% | 1010 hPa | 0 mm | - | - | - |
| 1778260799 | 27.78° C | 64% | 1010 hPa | 0 mm | - | - | - |
| 1778260613 | 27.78° C | 64% | 1010 hPa | 0 mm | - | - | - |
| 1778260426 | 27.78° C | 64% | 1010 hPa | 0 mm | - | - | - |
| 1778260245 | 27.78° C | 64% | 1010 hPa | 0 mm | - | - | - |
| 1778260052 | 27.78° C | 64% | 1010 hPa | 0 mm | - | - | - |
| 1778259864 | 27.78° C | 64% | 1010 hPa | 0 mm | - | - | - |
| 1778259683 | 27.78° C | 64% | 1010 hPa | 0 mm | - | - | - |
| 1778259501 | 27.78° C | 64% | 1010 hPa | 0 mm | - | - | - |
| 1778259315 | 27.78° C | 65% | 1010 hPa | 0 mm | - | - | - |
| 1778259133 | 27.78° C | 64% | 1010 hPa | 0 mm | - | - | - |
| 1778258947 | 27.78° C | 65% | 1010 hPa | 0 mm | - | - | - |
| 1778258758 | 27.78° C | 65% | 1010 hPa | 0 mm | - | - | - |
| 1778258567 | 27.78° C | 65% | 1010 hPa | 0 mm | - | - | - |
| 1778258385 | 27.78° C | 65% | 1010 hPa | 0 mm | - | - | - |
| 1778258194 | 25.56° C | 79% | 1011 hPa | 0 mm | - | - | - |
| 1778258001 | 27.78° C | 69% | 1010 hPa | 0 mm | - | - | - |
| 1778257818 | 27.78° C | 69% | 1010 hPa | 0 mm | - | - | - |
| 1778257631 | 25.56° C | 79% | 1011 hPa | 0 mm | - | - | - |
* Rain latest hour (hover to see other rain measurements)
** Current wind speed in m/s (hover to see current wind gust speed)